sensor_id;sensor_type;location;lat;lon;timestamp;temperature;humidity
27114;DHT22;14648;49.730;8.614;2023-03-23T00:02:26;15.60;42.60
27114;DHT22;14648;49.730;8.614;2023-03-23T00:04:54;15.60;42.70
27114;DHT22;14648;49.730;8.614;2023-03-23T00:07:22;15.70;42.90
27114;DHT22;14648;49.730;8.614;2023-03-23T00:09:49;15.70;43.10
27114;DHT22;14648;49.730;8.614;2023-03-23T00:12:30;15.70;43.20
27114;DHT22;14648;49.730;8.614;2023-03-23T00:15:08;15.70;43.30
27114;DHT22;14648;49.730;8.614;2023-03-23T00:17:38;15.70;44.00
27114;DHT22;14648;49.730;8.614;2023-03-23T00:20:05;15.70;43.20
27114;DHT22;14648;49.730;8.614;2023-03-23T00:22:32;15.70;43.30
27114;DHT22;14648;49.730;8.614;2023-03-23T00:25:06;15.70;43.30
27114;DHT22;14648;49.730;8.614;2023-03-23T00:27:33;15.70;43.30
27114;DHT22;14648;49.730;8.614;2023-03-23T00:30:00;15.70;43.40
27114;DHT22;14648;49.730;8.614;2023-03-23T00:32:25;15.70;44.00
27114;DHT22;14648;49.730;8.614;2023-03-23T00:34:56;15.80;43.20
27114;DHT22;14648;49.730;8.614;2023-03-23T00:37:26;15.70;43.20
27114;DHT22;14648;49.730;8.614;2023-03-23T00:39:54;15.80;43.10
27114;DHT22;14648;49.730;8.614;2023-03-23T00:42:23;15.80;43.00
27114;DHT22;14648;49.730;8.614;2023-03-23T00:44:49;15.80;42.90
27114;DHT22;14648;49.730;8.614;2023-03-23T00:47:15;15.80;42.90
27114;DHT22;14648;49.730;8.614;2023-03-23T00:49:43;15.90;43.00
27114;DHT22;14648;49.730;8.614;2023-03-23T00:52:09;15.90;43.00
27114;DHT22;14648;49.730;8.614;2023-03-23T00:54:36;15.80;43.00
27114;DHT22;14648;49.730;8.614;2023-03-23T00:57:04;15.80;43.10
27114;DHT22;14648;49.730;8.614;2023-03-23T00:59:30;15.80;43.10
27114;DHT22;14648;49.730;8.614;2023-03-23T01:01:56;15.80;43.30
27114;DHT22;14648;49.730;8.614;2023-03-23T01:04:21;15.70;43.50
27114;DHT22;14648;49.730;8.614;2023-03-23T01:06:49;15.70;43.50
27114;DHT22;14648;49.730;8.614;2023-03-23T01:09:20;15.70;43.60
27114;DHT22;14648;49.730;8.614;2023-03-23T01:11:50;15.70;43.50
27114;DHT22;14648;49.730;8.614;2023-03-23T01:14:18;15.70;43.50
27114;DHT22;14648;49.730;8.614;2023-03-23T01:16:47;15.70;43.60
27114;DHT22;14648;49.730;8.614;2023-03-23T01:19:13;15.60;43.50
27114;DHT22;14648;49.730;8.614;2023-03-23T01:21:40;15.60;43.40
27114;DHT22;14648;49.730;8.614;2023-03-23T01:24:06;15.60;43.40
27114;DHT22;14648;49.730;8.614;2023-03-23T01:26:32;15.60;43.40
27114;DHT22;14648;49.730;8.614;2023-03-23T01:28:58;15.60;43.40
27114;DHT22;14648;49.730;8.614;2023-03-23T01:31:25;15.60;43.50
27114;DHT22;14648;49.730;8.614;2023-03-23T01:33:52;15.60;43.50
27114;DHT22;14648;49.730;8.614;2023-03-23T01:36:23;15.60;43.60
27114;DHT22;14648;49.730;8.614;2023-03-23T01:38:52;15.60;43.60
27114;DHT22;14648;49.730;8.614;2023-03-23T01:41:19;15.60;43.50
27114;DHT22;14648;49.730;8.614;2023-03-23T01:43:56;15.50;43.60
27114;DHT22;14648;49.730;8.614;2023-03-23T01:46:40;15.50;43.70
27114;DHT22;14648;49.730;8.614;2023-03-23T01:49:19;15.60;43.60
27114;DHT22;14648;49.730;8.614;2023-03-23T01:51:55;15.60;43.70
27114;DHT22;14648;49.730;8.614;2023-03-23T01:54:23;15.50;43.70
27114;DHT22;14648;49.730;8.614;2023-03-23T01:56:59;15.50;43.70
27114;DHT22;14648;49.730;8.614;2023-03-23T01:59:27;15.50;43.80
27114;DHT22;14648;49.730;8.614;2023-03-23T02:01:55;15.50;43.90
27114;DHT22;14648;49.730;8.614;2023-03-23T02:04:22;15.50;43.90
27114;DHT22;14648;49.730;8.614;2023-03-23T02:06:50;15.50;43.90
27114;DHT22;14648;49.730;8.614;2023-03-23T02:09:17;15.50;44.00
27114;DHT22;14648;49.730;8.614;2023-03-23T02:11:44;15.50;43.90
27114;DHT22;14648;49.730;8.614;2023-03-23T02:14:12;15.40;43.90
27114;DHT22;14648;49.730;8.614;2023-03-23T02:22:52;15.40;44.10
27114;DHT22;14648;49.730;8.614;2023-03-23T02:26:47;15.30;44.10
27114;DHT22;14648;49.730;8.614;2023-03-23T02:29:47;15.30;44.20
27114;DHT22;14648;49.730;8.614;2023-03-23T02:32:35;15.30;44.30
27114;DHT22;14648;49.730;8.614;2023-03-23T02:35:39;15.30;44.30
27114;DHT22;14648;49.730;8.614;2023-03-23T02:38:14;15.30;44.30
27114;DHT22;14648;49.730;8.614;2023-03-23T02:40:47;15.30;44.40
27114;DHT22;14648;49.730;8.614;2023-03-23T02:43:17;15.30;44.50
27114;DHT22;14648;49.730;8.614;2023-03-23T02:45:46;15.30;44.50
27114;DHT22;14648;49.730;8.614;2023-03-23T02:48:15;15.30;44.50
27114;DHT22;14648;49.730;8.614;2023-03-23T02:50:49;15.20;44.40
27114;DHT22;14648;49.730;8.614;2023-03-23T02:53:20;15.30;44.50
27114;DHT22;14648;49.730;8.614;2023-03-23T02:55:48;15.30;44.50
27114;DHT22;14648;49.730;8.614;2023-03-23T02:58:14;15.30;44.50
27114;DHT22;14648;49.730;8.614;2023-03-23T03:00:41;15.20;44.40
27114;DHT22;14648;49.730;8.614;2023-03-23T03:03:12;15.20;44.40
27114;DHT22;14648;49.730;8.614;2023-03-23T03:06:01;15.30;44.50
27114;DHT22;14648;49.730;8.614;2023-03-23T03:09:13;15.30;44.50
27114;DHT22;14648;49.730;8.614;2023-03-23T03:12:08;15.30;44.50
27114;DHT22;14648;49.730;8.614;2023-03-23T03:14:44;15.30;45.30
27114;DHT22;14648;49.730;8.614;2023-03-23T03:17:25;15.20;44.70
27114;DHT22;14648;49.730;8.614;2023-03-23T03:19:59;15.20;44.70
27114;DHT22;14648;49.730;8.614;2023-03-23T03:22:38;15.10;44.90
27114;DHT22;14648;49.730;8.614;2023-03-23T03:25:08;15.20;44.80
27114;DHT22;14648;49.730;8.614;2023-03-23T03:27:34;15.10;44.80
27114;DHT22;14648;49.730;8.614;2023-03-23T03:30:02;15.10;44.80
27114;DHT22;14648;49.730;8.614;2023-03-23T03:32:47;15.20;44.90
27114;DHT22;14648;49.730;8.614;2023-03-23T03:35:16;15.20;44.90
27114;DHT22;14648;49.730;8.614;2023-03-23T03:37:43;15.20;44.70
27114;DHT22;14648;49.730;8.614;2023-03-23T03:40:13;15.20;44.70
27114;DHT22;14648;49.730;8.614;2023-03-23T03:42:43;15.30;44.80
27114;DHT22;14648;49.730;8.614;2023-03-23T03:45:12;15.30;44.80
27114;DHT22;14648;49.730;8.614;2023-03-23T03:47:40;15.30;44.70
27114;DHT22;14648;49.730;8.614;2023-03-23T03:50:06;15.30;44.70
27114;DHT22;14648;49.730;8.614;2023-03-23T03:52:32;15.30;44.70
27114;DHT22;14648;49.730;8.614;2023-03-23T03:54:58;15.30;44.60
27114;DHT22;14648;49.730;8.614;2023-03-23T03:57:25;15.30;44.60
27114;DHT22;14648;49.730;8.614;2023-03-23T03:59:51;15.30;44.60
27114;DHT22;14648;49.730;8.614;2023-03-23T04:02:17;15.30;44.60
27114;DHT22;14648;49.730;8.614;2023-03-23T04:04:49;15.40;44.50
27114;DHT22;14648;49.730;8.614;2023-03-23T04:07:15;15.40;44.50
27114;DHT22;14648;49.730;8.614;2023-03-23T04:09:44;15.40;44.50
27114;DHT22;14648;49.730;8.614;2023-03-23T04:12:14;15.40;44.60
27114;DHT22;14648;49.730;8.614;2023-03-23T04:14:41;15.40;44.60
27114;DHT22;14648;49.730;8.614;2023-03-23T04:17:07;15.30;45.40
27114;DHT22;14648;49.730;8.614;2023-03-23T04:19:35;15.40;44.70
27114;DHT22;14648;49.730;8.614;2023-03-23T04:22:03;15.30;45.60
27114;DHT22;14648;49.730;8.614;2023-03-23T04:24:30;15.30;44.90
27114;DHT22;14648;49.730;8.614;2023-03-23T04:26:59;15.30;45.00
27114;DHT22;14648;49.730;8.614;2023-03-23T04:29:25;15.30;45.30
27114;DHT22;14648;49.730;8.614;2023-03-23T04:31:50;15.20;45.60
27114;DHT22;14648;49.730;8.614;2023-03-23T04:34:18;15.20;45.80
27114;DHT22;14648;49.730;8.614;2023-03-23T04:36:44;15.10;46.70
27114;DHT22;14648;49.730;8.614;2023-03-23T04:39:12;15.00;46.10
27114;DHT22;14648;49.730;8.614;2023-03-23T04:41:41;15.00;46.30
27114;DHT22;14648;49.730;8.614;2023-03-23T04:44:07;15.00;46.30
27114;DHT22;14648;49.730;8.614;2023-03-23T04:46:33;15.00;46.40
27114;DHT22;14648;49.730;8.614;2023-03-23T04:48:59;14.90;46.50
27114;DHT22;14648;49.730;8.614;2023-03-23T04:51:26;14.90;46.60
27114;DHT22;14648;49.730;8.614;2023-03-23T04:53:54;14.90;46.70
27114;DHT22;14648;49.730;8.614;2023-03-23T04:56:20;14.90;46.80
27114;DHT22;14648;49.730;8.614;2023-03-23T04:58:46;14.90;46.80
27114;DHT22;14648;49.730;8.614;2023-03-23T05:01:13;14.90;46.90
27114;DHT22;14648;49.730;8.614;2023-03-23T05:03:40;14.90;47.00
27114;DHT22;14648;49.730;8.614;2023-03-23T05:06:06;14.90;47.10
27114;DHT22;14648;49.730;8.614;2023-03-23T05:08:33;14.90;47.20
27114;DHT22;14648;49.730;8.614;2023-03-23T05:11:00;14.90;47.30
27114;DHT22;14648;49.730;8.614;2023-03-23T05:13:29;14.90;47.30
27114;DHT22;14648;49.730;8.614;2023-03-23T05:15:55;14.90;48.10
27114;DHT22;14648;49.730;8.614;2023-03-23T05:18:20;14.90;47.40
27114;DHT22;14648;49.730;8.614;2023-03-23T05:20:47;14.90;47.40
27114;DHT22;14648;49.730;8.614;2023-03-23T05:23:14;14.90;47.50
27114;DHT22;14648;49.730;8.614;2023-03-23T05:25:40;14.90;47.50
27114;DHT22;14648;49.730;8.614;2023-03-23T05:28:10;14.90;47.60
27114;DHT22;14648;49.730;8.614;2023-03-23T05:30:37;14.90;47.80
27114;DHT22;14648;49.730;8.614;2023-03-23T05:33:04;14.90;47.70
27114;DHT22;14648;49.730;8.614;2023-03-23T05:35:30;14.90;47.70
27114;DHT22;14648;49.730;8.614;2023-03-23T05:37:56;15.00;47.80
27114;DHT22;14648;49.730;8.614;2023-03-23T05:40:24;15.00;47.90
27114;DHT22;14648;49.730;8.614;2023-03-23T05:42:51;15.00;48.10
27114;DHT22;14648;49.730;8.614;2023-03-23T05:45:18;15.10;48.20
27114;DHT22;14648;49.730;8.614;2023-03-23T05:47:44;15.00;48.40
27114;DHT22;14648;49.730;8.614;2023-03-23T05:50:11;15.10;48.60
27114;DHT22;14648;49.730;8.614;2023-03-23T05:52:38;15.10;48.90
27114;DHT22;14648;49.730;8.614;2023-03-23T05:55:05;15.10;49.20
27114;DHT22;14648;49.730;8.614;2023-03-23T05:57:33;15.10;49.40
27114;DHT22;14648;49.730;8.614;2023-03-23T06:00:00;15.00;49.60
27114;DHT22;14648;49.730;8.614;2023-03-23T06:02:31;15.00;49.80
27114;DHT22;14648;49.730;8.614;2023-03-23T06:04:57;15.00;50.00
27114;DHT22;14648;49.730;8.614;2023-03-23T06:07:24;14.90;50.10
27114;DHT22;14648;49.730;8.614;2023-03-23T06:09:51;14.90;50.30
27114;DHT22;14648;49.730;8.614;2023-03-23T06:12:18;14.90;50.40
27114;DHT22;14648;49.730;8.614;2023-03-23T06:14:46;14.90;50.60
27114;DHT22;14648;49.730;8.614;2023-03-23T06:17:16;14.90;50.80
27114;DHT22;14648;49.730;8.614;2023-03-23T06:19:43;14.90;50.90
27114;DHT22;14648;49.730;8.614;2023-03-23T06:22:10;14.90;51.10
27114;DHT22;14648;49.730;8.614;2023-03-23T06:24:36;14.90;51.10
27114;DHT22;14648;49.730;8.614;2023-03-23T06:27:02;14.90;51.20
27114;DHT22;14648;49.730;8.614;2023-03-23T06:29:30;14.90;52.80
27114;DHT22;14648;49.730;8.614;2023-03-23T06:32:00;14.80;52.00
27114;DHT22;14648;49.730;8.614;2023-03-23T06:34:27;14.80;51.90
27114;DHT22;14648;49.730;8.614;2023-03-23T06:36:53;14.80;51.90
27114;DHT22;14648;49.730;8.614;2023-03-23T06:39:19;14.80;52.00
27114;DHT22;14648;49.730;8.614;2023-03-23T06:41:48;14.80;52.10
27114;DHT22;14648;49.730;8.614;2023-03-23T06:44:14;14.70;52.10
27114;DHT22;14648;49.730;8.614;2023-03-23T06:46:41;14.70;52.10
27114;DHT22;14648;49.730;8.614;2023-03-23T06:49:07;14.70;52.30
27114;DHT22;14648;49.730;8.614;2023-03-23T06:51:36;14.70;52.40
27114;DHT22;14648;49.730;8.614;2023-03-23T06:54:03;14.70;52.40
27114;DHT22;14648;49.730;8.614;2023-03-23T06:56:30;14.70;52.50
27114;DHT22;14648;49.730;8.614;2023-03-23T06:58:56;14.70;52.50
27114;DHT22;14648;49.730;8.614;2023-03-23T07:01:22;14.70;52.70
27114;DHT22;14648;49.730;8.614;2023-03-23T07:03:48;14.70;52.70
27114;DHT22;14648;49.730;8.614;2023-03-23T07:06:14;14.60;52.60
27114;DHT22;14648;49.730;8.614;2023-03-23T07:08:41;14.60;52.70
27114;DHT22;14648;49.730;8.614;2023-03-23T07:11:07;14.60;52.90
27114;DHT22;14648;49.730;8.614;2023-03-23T07:13:33;14.60;52.90
27114;DHT22;14648;49.730;8.614;2023-03-23T07:15:59;14.60;53.00
27114;DHT22;14648;49.730;8.614;2023-03-23T07:18:26;14.60;53.00
27114;DHT22;14648;49.730;8.614;2023-03-23T07:20:53;14.60;53.70
27114;DHT22;14648;49.730;8.614;2023-03-23T07:23:19;14.50;53.10
27114;DHT22;14648;49.730;8.614;2023-03-23T07:25:46;14.60;53.10
27114;DHT22;14648;49.730;8.614;2023-03-23T07:28:14;14.60;53.10
27114;DHT22;14648;49.730;8.614;2023-03-23T07:30:40;14.50;53.20
27114;DHT22;14648;49.730;8.614;2023-03-23T07:33:08;14.50;53.20
27114;DHT22;14648;49.730;8.614;2023-03-23T07:35:35;14.50;53.30
27114;DHT22;14648;49.730;8.614;2023-03-23T07:38:01;14.50;53.30
27114;DHT22;14648;49.730;8.614;2023-03-23T07:40:28;14.60;53.40
27114;DHT22;14648;49.730;8.614;2023-03-23T07:42:57;14.50;53.40
27114;DHT22;14648;49.730;8.614;2023-03-23T07:45:23;14.60;53.50
27114;DHT22;14648;49.730;8.614;2023-03-23T07:47:49;14.50;53.50
27114;DHT22;14648;49.730;8.614;2023-03-23T07:50:16;14.50;53.60
27114;DHT22;14648;49.730;8.614;2023-03-23T07:52:44;14.50;54.40
27114;DHT22;14648;49.730;8.614;2023-03-23T07:55:11;14.50;53.80
27114;DHT22;14648;49.730;8.614;2023-03-23T07:57:46;14.50;53.80
27114;DHT22;14648;49.730;8.614;2023-03-23T08:00:16;14.50;55.10
27114;DHT22;14648;49.730;8.614;2023-03-23T08:02:47;14.60;54.40
27114;DHT22;14648;49.730;8.614;2023-03-23T08:05:14;14.60;54.30
27114;DHT22;14648;49.730;8.614;2023-03-23T08:07:42;14.60;54.20
27114;DHT22;14648;49.730;8.614;2023-03-23T08:10:09;14.60;54.20
27114;DHT22;14648;49.730;8.614;2023-03-23T08:12:36;14.60;54.20
27114;DHT22;14648;49.730;8.614;2023-03-23T08:15:07;14.50;54.20
27114;DHT22;14648;49.730;8.614;2023-03-23T08:17:35;14.60;54.30
27114;DHT22;14648;49.730;8.614;2023-03-23T08:20:02;14.60;54.30
27114;DHT22;14648;49.730;8.614;2023-03-23T08:22:34;14.50;54.40
27114;DHT22;14648;49.730;8.614;2023-03-23T08:25:02;14.50;54.40
27114;DHT22;14648;49.730;8.614;2023-03-23T08:27:29;14.50;54.50
27114;DHT22;14648;49.730;8.614;2023-03-23T08:29:55;14.60;54.50
27114;DHT22;14648;49.730;8.614;2023-03-23T08:32:20;14.60;54.50
27114;DHT22;14648;49.730;8.614;2023-03-23T08:34:46;14.50;54.50
27114;DHT22;14648;49.730;8.614;2023-03-23T08:37:12;14.60;54.60
27114;DHT22;14648;49.730;8.614;2023-03-23T08:39:38;14.60;54.60
27114;DHT22;14648;49.730;8.614;2023-03-23T08:42:04;14.60;54.70
27114;DHT22;14648;49.730;8.614;2023-03-23T08:44:30;14.60;54.80
27114;DHT22;14648;49.730;8.614;2023-03-23T08:46:55;14.50;54.90
27114;DHT22;14648;49.730;8.614;2023-03-23T08:49:23;14.50;54.90
27114;DHT22;14648;49.730;8.614;2023-03-23T08:51:49;14.50;55.00
27114;DHT22;14648;49.730;8.614;2023-03-23T08:54:15;14.50;55.10
27114;DHT22;14648;49.730;8.614;2023-03-23T08:56:42;14.50;55.20
27114;DHT22;14648;49.730;8.614;2023-03-23T08:59:09;14.50;55.20
27114;DHT22;14648;49.730;8.614;2023-03-23T09:01:35;14.50;55.30
27114;DHT22;14648;49.730;8.614;2023-03-23T09:04:01;14.60;55.30
27114;DHT22;14648;49.730;8.614;2023-03-23T09:06:27;14.50;55.40
27114;DHT22;14648;49.730;8.614;2023-03-23T09:08:53;14.50;55.50
27114;DHT22;14648;49.730;8.614;2023-03-23T09:11:21;14.50;56.20
27114;DHT22;14648;49.730;8.614;2023-03-23T09:13:47;14.50;55.60
27114;DHT22;14648;49.730;8.614;2023-03-23T09:16:13;14.50;55.60
27114;DHT22;14648;49.730;8.614;2023-03-23T09:18:39;14.50;55.60
27114;DHT22;14648;49.730;8.614;2023-03-23T09:21:06;14.50;55.60
27114;DHT22;14648;49.730;8.614;2023-03-23T09:23:32;14.50;55.70
27114;DHT22;14648;49.730;8.614;2023-03-23T09:26:00;14.50;55.70
27114;DHT22;14648;49.730;8.614;2023-03-23T09:28:27;14.60;55.60
27114;DHT22;14648;49.730;8.614;2023-03-23T09:30:55;14.60;55.60
27114;DHT22;14648;49.730;8.614;2023-03-23T09:33:23;14.60;55.40
27114;DHT22;14648;49.730;8.614;2023-03-23T09:35:49;14.60;55.30
27114;DHT22;14648;49.730;8.614;2023-03-23T09:38:15;14.70;55.50
27114;DHT22;14648;49.730;8.614;2023-03-23T09:40:51;14.70;55.20
27114;DHT22;14648;49.730;8.614;2023-03-23T09:49:33;15.00;54.90
27114;DHT22;14648;49.730;8.614;2023-03-23T09:52:11;15.00;54.70
27114;DHT22;14648;49.730;8.614;2023-03-23T09:54:53;15.00;54.50
27114;DHT22;14648;49.730;8.614;2023-03-23T09:57:30;15.10;54.60
27114;DHT22;14648;49.730;8.614;2023-03-23T10:00:12;15.20;54.30
27114;DHT22;14648;49.730;8.614;2023-03-23T10:05:49;15.10;54.00
27114;DHT22;14648;49.730;8.614;2023-03-23T10:08:19;15.20;54.10
27114;DHT22;14648;49.730;8.614;2023-03-23T10:11:23;15.30;54.20
27114;DHT22;14648;49.730;8.614;2023-03-23T10:14:39;15.50;54.00
27114;DHT22;14648;49.730;8.614;2023-03-23T10:21:11;15.60;53.60
27114;DHT22;14648;49.730;8.614;2023-03-23T10:26:33;15.60;53.30
27114;DHT22;14648;49.730;8.614;2023-03-23T10:29:17;15.60;53.20
27114;DHT22;14648;49.730;8.614;2023-03-23T10:34:40;15.70;53.40
27114;DHT22;14648;49.730;8.614;2023-03-23T10:37:18;15.80;53.30
27114;DHT22;14648;49.730;8.614;2023-03-23T10:40:00;15.80;53.30
27114;DHT22;14648;49.730;8.614;2023-03-23T10:42:32;15.80;53.40
27114;DHT22;14648;49.730;8.614;2023-03-23T10:45:19;15.80;53.50
27114;DHT22;14648;49.730;8.614;2023-03-23T10:48:17;15.70;53.90
27114;DHT22;14648;49.730;8.614;2023-03-23T10:50:59;15.70;54.80
27114;DHT22;14648;49.730;8.614;2023-03-23T10:53:51;15.70;54.30
27114;DHT22;14648;49.730;8.614;2023-03-23T10:56:35;15.60;54.40
27114;DHT22;14648;49.730;8.614;2023-03-23T10:59:26;15.50;54.40
27114;DHT22;14648;49.730;8.614;2023-03-23T11:02:02;15.50;54.70
27114;DHT22;14648;49.730;8.614;2023-03-23T11:04:35;15.50;54.70
27114;DHT22;14648;49.730;8.614;2023-03-23T11:07:03;15.50;54.60
27114;DHT22;14648;49.730;8.614;2023-03-23T11:09:40;15.50;54.70
27114;DHT22;14648;49.730;8.614;2023-03-23T11:12:19;15.50;54.70
27114;DHT22;14648;49.730;8.614;2023-03-23T11:14:46;15.50;54.50
27114;DHT22;14648;49.730;8.614;2023-03-23T11:17:32;15.50;54.40
27114;DHT22;14648;49.730;8.614;2023-03-23T11:19:57;15.50;54.30
27114;DHT22;14648;49.730;8.614;2023-03-23T11:22:31;15.50;54.20
27114;DHT22;14648;49.730;8.614;2023-03-23T11:25:03;15.50;54.20
27114;DHT22;14648;49.730;8.614;2023-03-23T11:27:32;15.60;54.20
27114;DHT22;14648;49.730;8.614;2023-03-23T11:32:47;15.50;54.10
27114;DHT22;14648;49.730;8.614;2023-03-23T11:35:25;15.40;54.10
27114;DHT22;14648;49.730;8.614;2023-03-23T11:37:57;15.40;54.40
27114;DHT22;14648;49.730;8.614;2023-03-23T11:40:31;15.30;54.60
27114;DHT22;14648;49.730;8.614;2023-03-23T11:43:09;15.30;54.80
27114;DHT22;14648;49.730;8.614;2023-03-23T11:49:04;15.30;55.20
27114;DHT22;14648;49.730;8.614;2023-03-23T11:51:45;15.30;55.30
27114;DHT22;14648;49.730;8.614;2023-03-23T11:56:44;15.40;55.80
27114;DHT22;14648;49.730;8.614;2023-03-23T11:59:32;15.30;55.80
27114;DHT22;14648;49.730;8.614;2023-03-23T12:07:42;15.30;55.90
27114;DHT22;14648;49.730;8.614;2023-03-23T12:10:39;15.20;55.70
27114;DHT22;14648;49.730;8.614;2023-03-23T12:25:32;15.20;56.10
27114;DHT22;14648;49.730;8.614;2023-03-23T12:28:39;15.20;56.30
27114;DHT22;14648;49.730;8.614;2023-03-23T12:31:37;15.30;56.60
27114;DHT22;14648;49.730;8.614;2023-03-23T12:34:41;15.40;56.50
27114;DHT22;14648;49.730;8.614;2023-03-23T12:46:48;16.10;56.00
27114;DHT22;14648;49.730;8.614;2023-03-23T12:49:20;16.20;55.60
27114;DHT22;14648;49.730;8.614;2023-03-23T12:58:17;16.20;54.80
27114;DHT22;14648;49.730;8.614;2023-03-23T13:01:04;16.20;54.60
27114;DHT22;14648;49.730;8.614;2023-03-23T13:03:56;16.20;54.50
27114;DHT22;14648;49.730;8.614;2023-03-23T13:06:29;16.20;54.20
27114;DHT22;14648;49.730;8.614;2023-03-23T13:09:52;16.20;54.90
27114;DHT22;14648;49.730;8.614;2023-03-23T13:12:15;16.20;54.10
27114;DHT22;14648;49.730;8.614;2023-03-23T13:15:22;16.20;53.90
27114;DHT22;14648;49.730;8.614;2023-03-23T13:23:31;16.10;53.70
27114;DHT22;14648;49.730;8.614;2023-03-23T13:26:07;16.10;53.60
27114;DHT22;14648;49.730;8.614;2023-03-23T13:31:30;16.10;53.50
27114;DHT22;14648;49.730;8.614;2023-03-23T13:34:04;16.10;53.40
27114;DHT22;14648;49.730;8.614;2023-03-23T13:36:44;16.00;53.20
27114;DHT22;14648;49.730;8.614;2023-03-23T13:39:26;16.10;53.30
27114;DHT22;14648;49.730;8.614;2023-03-23T13:45:05;16.10;53.30
27114;DHT22;14648;49.730;8.614;2023-03-23T13:47:43;16.10;53.30
27114;DHT22;14648;49.730;8.614;2023-03-23T13:52:51;16.10;53.30
27114;DHT22;14648;49.730;8.614;2023-03-23T14:05:36;16.20;53.40
27114;DHT22;14648;49.730;8.614;2023-03-23T14:14:07;16.30;53.30
27114;DHT22;14648;49.730;8.614;2023-03-23T14:16:44;16.30;53.30
27114;DHT22;14648;49.730;8.614;2023-03-23T14:19:29;16.20;53.10
27114;DHT22;14648;49.730;8.614;2023-03-23T14:22:01;16.20;53.10
27114;DHT22;14648;49.730;8.614;2023-03-23T14:24:33;16.20;53.20
27114;DHT22;14648;49.730;8.614;2023-03-23T14:29:33;16.20;53.30
27114;DHT22;14648;49.730;8.614;2023-03-23T14:32:00;16.30;53.40
27114;DHT22;14648;49.730;8.614;2023-03-23T14:34:29;16.30;53.40
27114;DHT22;14648;49.730;8.614;2023-03-23T14:36:57;16.30;53.10
27114;DHT22;14648;49.730;8.614;2023-03-23T14:39:29;16.30;53.00
27114;DHT22;14648;49.730;8.614;2023-03-23T14:42:04;16.30;52.90
27114;DHT22;14648;49.730;8.614;2023-03-23T14:44:37;16.30;52.90
27114;DHT22;14648;49.730;8.614;2023-03-23T14:47:10;16.30;52.80
27114;DHT22;14648;49.730;8.614;2023-03-23T14:49:42;16.30;52.70
27114;DHT22;14648;49.730;8.614;2023-03-23T14:52:16;16.40;52.80
27114;DHT22;14648;49.730;8.614;2023-03-23T14:54:44;16.40;52.80
27114;DHT22;14648;49.730;8.614;2023-03-23T14:57:16;16.40;52.80
27114;DHT22;14648;49.730;8.614;2023-03-23T14:59:47;16.40;52.70
27114;DHT22;14648;49.730;8.614;2023-03-23T15:05:08;16.50;52.70
27114;DHT22;14648;49.730;8.614;2023-03-23T15:07:40;16.50;53.20
27114;DHT22;14648;49.730;8.614;2023-03-23T15:10:09;16.50;52.60
27114;DHT22;14648;49.730;8.614;2023-03-23T15:12:37;16.50;52.70
27114;DHT22;14648;49.730;8.614;2023-03-23T15:15:06;16.50;52.70
27114;DHT22;14648;49.730;8.614;2023-03-23T15:17:35;16.60;52.70
27114;DHT22;14648;49.730;8.614;2023-03-23T15:20:10;16.60;52.70
27114;DHT22;14648;49.730;8.614;2023-03-23T15:22:48;16.60;52.50
27114;DHT22;14648;49.730;8.614;2023-03-23T15:28:17;16.70;52.40
27114;DHT22;14648;49.730;8.614;2023-03-23T15:30:52;16.70;52.40
27114;DHT22;14648;49.730;8.614;2023-03-23T15:33:19;16.70;52.20
27114;DHT22;14648;49.730;8.614;2023-03-23T15:35:52;16.60;52.20
27114;DHT22;14648;49.730;8.614;2023-03-23T15:38:25;16.70;52.30
27114;DHT22;14648;49.730;8.614;2023-03-23T15:40:56;16.60;52.30
27114;DHT22;14648;49.730;8.614;2023-03-23T15:43:30;16.70;52.40
27114;DHT22;14648;49.730;8.614;2023-03-23T15:46:20;16.60;52.30
27114;DHT22;14648;49.730;8.614;2023-03-23T15:51:27;16.50;52.60
27114;DHT22;14648;49.730;8.614;2023-03-23T15:53:55;16.40;52.60
27114;DHT22;14648;49.730;8.614;2023-03-23T15:56:22;16.30;52.70
27114;DHT22;14648;49.730;8.614;2023-03-23T15:58:49;16.30;52.90
27114;DHT22;14648;49.730;8.614;2023-03-23T16:01:26;16.20;53.00
27114;DHT22;14648;49.730;8.614;2023-03-23T16:03:57;16.20;53.30
27114;DHT22;14648;49.730;8.614;2023-03-23T16:06:34;16.20;53.30
27114;DHT22;14648;49.730;8.614;2023-03-23T16:09:01;16.10;53.40
27114;DHT22;14648;49.730;8.614;2023-03-23T16:11:29;16.10;53.60
27114;DHT22;14648;49.730;8.614;2023-03-23T16:13:56;16.10;53.70
27114;DHT22;14648;49.730;8.614;2023-03-23T16:16:35;16.00;53.80
27114;DHT22;14648;49.730;8.614;2023-03-23T16:19:03;16.10;54.00
27114;DHT22;14648;49.730;8.614;2023-03-23T16:21:30;16.10;54.00
27114;DHT22;14648;49.730;8.614;2023-03-23T16:23:55;16.10;54.10
27114;DHT22;14648;49.730;8.614;2023-03-23T16:26:23;16.00;54.00
27114;DHT22;14648;49.730;8.614;2023-03-23T16:28:49;16.00;54.10
27114;DHT22;14648;49.730;8.614;2023-03-23T16:31:14;16.00;54.20
27114;DHT22;14648;49.730;8.614;2023-03-23T16:33:40;15.90;54.30
27114;DHT22;14648;49.730;8.614;2023-03-23T16:36:06;16.00;54.30
27114;DHT22;14648;49.730;8.614;2023-03-23T16:38:34;15.90;54.40
27114;DHT22;14648;49.730;8.614;2023-03-23T16:41:00;15.90;54.60
27114;DHT22;14648;49.730;8.614;2023-03-23T16:43:26;15.90;54.60
27114;DHT22;14648;49.730;8.614;2023-03-23T16:45:54;15.90;54.70
27114;DHT22;14648;49.730;8.614;2023-03-23T16:48:21;15.80;54.70
27114;DHT22;14648;49.730;8.614;2023-03-23T16:50:47;15.80;54.60
27114;DHT22;14648;49.730;8.614;2023-03-23T16:53:13;15.80;54.80
27114;DHT22;14648;49.730;8.614;2023-03-23T16:55:39;15.80;54.80
27114;DHT22;14648;49.730;8.614;2023-03-23T16:58:05;15.80;54.90
27114;DHT22;14648;49.730;8.614;2023-03-23T17:00:32;15.70;55.00
27114;DHT22;14648;49.730;8.614;2023-03-23T17:02:58;15.70;55.10
27114;DHT22;14648;49.730;8.614;2023-03-23T17:05:26;15.70;55.10
27114;DHT22;14648;49.730;8.614;2023-03-23T17:07:54;15.70;55.20
27114;DHT22;14648;49.730;8.614;2023-03-23T17:10:20;15.70;55.30
27114;DHT22;14648;49.730;8.614;2023-03-23T17:12:47;15.70;55.30
27114;DHT22;14648;49.730;8.614;2023-03-23T17:15:13;15.60;55.30
27114;DHT22;14648;49.730;8.614;2023-03-23T17:17:39;15.60;55.40
27114;DHT22;14648;49.730;8.614;2023-03-23T17:20:05;15.60;55.50
27114;DHT22;14648;49.730;8.614;2023-03-23T17:22:32;15.60;55.60
27114;DHT22;14648;49.730;8.614;2023-03-23T17:25:01;15.60;55.70
27114;DHT22;14648;49.730;8.614;2023-03-23T17:27:27;15.60;55.70
27114;DHT22;14648;49.730;8.614;2023-03-23T17:29:54;15.60;55.60
27114;DHT22;14648;49.730;8.614;2023-03-23T17:32:20;15.60;55.70
27114;DHT22;14648;49.730;8.614;2023-03-23T17:34:49;15.50;55.80
27114;DHT22;14648;49.730;8.614;2023-03-23T17:37:15;15.50;55.80
27114;DHT22;14648;49.730;8.614;2023-03-23T17:39:41;15.50;55.90
27114;DHT22;14648;49.730;8.614;2023-03-23T17:42:07;15.50;55.90
27114;DHT22;14648;49.730;8.614;2023-03-23T17:44:33;15.50;56.00